createdAt,value
2024-03-16T00:00:26.351Z,5.90
2024-03-16T00:02:54.464Z,5.80
2024-03-16T00:05:22.105Z,5.80
2024-03-16T00:07:50.816Z,5.80
2024-03-16T00:10:18.409Z,5.80
2024-03-16T00:12:46.034Z,5.80
2024-03-16T00:15:13.651Z,5.80
2024-03-16T00:17:41.159Z,5.90
2024-03-16T00:20:11.804Z,5.90
2024-03-16T00:22:39.644Z,5.90
2024-03-16T00:25:07.740Z,5.90
2024-03-16T00:27:35.597Z,5.90
2024-03-16T00:30:05.522Z,6.00
2024-03-16T00:32:33.248Z,5.90
2024-03-16T00:35:00.920Z,5.90
2024-03-16T00:37:28.896Z,5.90
2024-03-16T00:39:56.622Z,5.90
2024-03-16T00:42:24.261Z,5.90
2024-03-16T00:44:52.022Z,5.90
2024-03-16T00:47:19.856Z,5.90
2024-03-16T00:49:49.116Z,5.80
2024-03-16T00:52:17.201Z,5.80
2024-03-16T00:54:44.945Z,5.80
2024-03-16T00:57:12.525Z,5.80
2024-03-16T00:59:40.078Z,5.70
2024-03-16T01:02:07.600Z,5.60
2024-03-16T01:04:35.365Z,5.50
2024-03-16T01:07:03.220Z,5.40
2024-03-16T01:09:31.944Z,5.30
2024-03-16T01:11:59.802Z,5.20
2024-03-16T01:14:27.563Z,5.10
2024-03-16T01:16:55.388Z,5.10
2024-03-16T01:19:23.080Z,4.90
2024-03-16T01:21:50.910Z,4.90
2024-03-16T01:24:18.809Z,4.80
2024-03-16T01:26:47.537Z,4.70
2024-03-16T01:29:17.325Z,4.60
2024-03-16T01:31:45.261Z,4.50
2024-03-16T01:34:12.979Z,4.40
2024-03-16T01:36:43.568Z,4.30
2024-03-16T01:39:13.434Z,4.20
2024-03-16T01:41:41.613Z,4.10
2024-03-16T01:44:13.032Z,3.90
2024-03-16T01:46:42.567Z,3.90
2024-03-16T01:49:10.568Z,3.80
2024-03-16T01:51:38.861Z,3.80
2024-03-16T01:54:06.731Z,3.70
2024-03-16T01:56:35.458Z,3.60
2024-03-16T01:59:03.806Z,3.40
2024-03-16T02:01:32.699Z,3.30
2024-03-16T02:04:00.833Z,3.30
2024-03-16T02:06:30.234Z,3.20
2024-03-16T02:08:58.353Z,3.10
2024-03-16T02:11:26.270Z,3.10
2024-03-16T02:13:55.316Z,3.00
2024-03-16T02:16:22.894Z,2.90
2024-03-16T02:18:51.693Z,2.80
2024-03-16T02:21:19.504Z,2.80
2024-03-16T02:23:48.285Z,2.80
2024-03-16T02:26:16.485Z,2.80
2024-03-16T02:28:44.116Z,2.70
2024-03-16T02:31:11.880Z,2.60
2024-03-16T02:33:39.500Z,2.50
2024-03-16T02:36:07.127Z,2.40
2024-03-16T02:38:35.533Z,2.30
2024-03-16T02:41:08.670Z,2.30
2024-03-16T02:43:36.081Z,2.30
2024-03-16T02:46:06.783Z,2.20
2024-03-16T02:48:34.565Z,2.20
2024-03-16T02:51:03.017Z,2.10
2024-03-16T02:53:30.730Z,2.10
2024-03-16T02:55:58.314Z,2.00
2024-03-16T02:58:25.770Z,1.90
2024-03-16T03:00:54.143Z,1.90
2024-03-16T03:03:21.756Z,1.80
2024-03-16T03:05:51.065Z,1.80
2024-03-16T03:08:18.786Z,1.80
2024-03-16T03:10:46.585Z,1.80
2024-03-16T03:13:14.261Z,1.80
2024-03-16T03:15:42.257Z,1.80
2024-03-16T03:18:09.899Z,1.80
2024-03-16T03:20:38.175Z,1.60
2024-03-16T03:23:06.835Z,1.50
2024-03-16T03:25:35.928Z,1.40
2024-03-16T03:28:05.204Z,1.40
2024-03-16T03:30:32.956Z,1.30
2024-03-16T03:33:00.867Z,1.30
2024-03-16T03:35:29.885Z,1.20
2024-03-16T03:37:57.377Z,1.10
2024-03-16T03:40:25.048Z,1.10
2024-03-16T03:42:57.004Z,1.10
2024-03-16T03:45:51.152Z,1.10
2024-03-16T03:48:24.959Z,1.00
2024-03-16T03:50:52.998Z,1.00
2024-03-16T03:53:21.590Z,0.90
2024-03-16T03:55:49.844Z,0.90
2024-03-16T03:58:18.365Z,0.90
2024-03-16T04:00:46.745Z,0.90
2024-03-16T04:03:14.447Z,0.80
2024-03-16T04:05:43.198Z,0.90
2024-03-16T04:08:10.883Z,0.80
2024-03-16T04:10:39.051Z,0.80
2024-03-16T04:13:06.618Z,0.80
2024-03-16T04:15:34.398Z,0.80
2024-03-16T04:18:02.038Z,0.80
2024-03-16T04:20:29.730Z,0.70
2024-03-16T04:22:57.446Z,0.60
2024-03-16T04:25:25.039Z,0.50
2024-03-16T04:27:52.694Z,0.50
2024-03-16T04:30:20.475Z,0.50
2024-03-16T04:32:48.179Z,0.40
2024-03-16T04:35:16.238Z,0.40
2024-03-16T04:37:43.862Z,0.30
2024-03-16T04:40:12.302Z,0.30
2024-03-16T04:42:40.454Z,0.40
2024-03-16T04:45:08.939Z,0.40
2024-03-16T04:47:36.629Z,0.30
2024-03-16T04:50:04.374Z,0.20
2024-03-16T04:52:31.822Z,0.10
2024-03-16T04:54:59.519Z,0.10
2024-03-16T04:57:27.211Z,0.10
2024-03-16T04:59:54.829Z,0.00
2024-03-16T05:02:22.350Z,0.00
2024-03-16T05:04:50.002Z,0.00
2024-03-16T05:07:17.496Z,0.00
2024-03-16T05:09:46.012Z,0.00
2024-03-16T05:12:14.679Z,0.00
2024-03-16T05:14:42.632Z,0.00
2024-03-16T05:17:10.204Z,0.00
2024-03-16T05:19:37.730Z,0.00
2024-03-16T05:22:06.677Z,0.00
2024-03-16T05:24:34.495Z,0.00
2024-03-16T05:27:02.222Z,0.00
2024-03-16T05:29:30.151Z,0.00
2024-03-16T05:31:59.373Z,-0.10
2024-03-16T05:34:27.624Z,-0.10
2024-03-16T05:36:55.441Z,-0.10
2024-03-16T05:39:23.447Z,-0.10
2024-03-16T05:41:51.135Z,-0.20
2024-03-16T05:44:18.808Z,-0.20
2024-03-16T05:46:46.498Z,-0.20
2024-03-16T05:49:14.237Z,-0.30
2024-03-16T05:51:42.603Z,-0.30
2024-03-16T05:54:10.289Z,-0.40
2024-03-16T05:56:38.627Z,-0.40
2024-03-16T05:59:10.128Z,-0.40
2024-03-16T06:01:38.350Z,-0.40
2024-03-16T06:04:06.440Z,-0.40
2024-03-16T06:06:35.873Z,-0.50
2024-03-16T06:09:06.883Z,-0.40
2024-03-16T06:11:36.470Z,-0.30
2024-03-16T06:14:05.941Z,-0.20
2024-03-16T06:16:33.939Z,-0.20
2024-03-16T06:19:01.904Z,-0.10
2024-03-16T06:21:30.760Z,-0.10
2024-03-16T06:23:59.522Z,-0.10
2024-03-16T06:26:29.533Z,-0.10
2024-03-16T06:29:06.537Z,-0.10
2024-03-16T06:31:36.897Z,0.00
2024-03-16T06:34:07.541Z,0.00
2024-03-16T06:36:36.019Z,0.00
2024-03-16T06:39:13.009Z,0.00
2024-03-16T06:41:41.145Z,0.00
2024-03-16T06:44:09.223Z,0.10
2024-03-16T06:46:37.914Z,0.10
2024-03-16T06:49:09.124Z,0.20
2024-03-16T06:51:38.202Z,0.30
2024-03-16T06:54:07.067Z,0.30
2024-03-16T06:56:35.533Z,0.40
2024-03-16T06:59:04.705Z,0.40
2024-03-16T07:01:33.316Z,0.40
2024-03-16T07:04:05.178Z,0.50
2024-03-16T07:06:34.543Z,0.50
2024-03-16T07:09:05.162Z,0.60
2024-03-16T07:11:34.904Z,0.70
2024-03-16T07:14:05.531Z,0.70
2024-03-16T07:16:34.772Z,0.90
2024-03-16T07:19:04.782Z,1.00
2024-03-16T07:21:35.365Z,1.10
2024-03-16T07:24:05.257Z,1.30
2024-03-16T07:26:37.217Z,1.40
2024-03-16T07:29:06.595Z,1.50
2024-03-16T07:31:36.741Z,1.50
2024-03-16T07:34:07.733Z,1.60
2024-03-16T07:36:41.022Z,1.70
2024-03-16T07:39:13.193Z,1.80
2024-03-16T07:41:43.788Z,1.90
2024-03-16T07:44:14.563Z,2.10
2024-03-16T07:46:44.555Z,2.20
2024-03-16T07:49:16.470Z,2.40
2024-03-16T07:51:47.139Z,2.50
2024-03-16T07:54:17.761Z,2.70
2024-03-16T07:56:50.822Z,2.80
2024-03-16T07:59:21.905Z,3.00
2024-03-16T08:01:51.954Z,3.10
2024-03-16T08:04:22.940Z,3.20
2024-03-16T08:06:53.446Z,3.30
2024-03-16T08:09:26.190Z,3.50
2024-03-16T08:11:57.042Z,3.60
2024-03-16T08:14:33.968Z,3.80
2024-03-16T08:17:08.085Z,3.80
2024-03-16T08:19:41.271Z,3.90
2024-03-16T08:22:13.424Z,4.10
2024-03-16T08:24:45.249Z,4.20
2024-03-16T08:27:17.494Z,4.30
2024-03-16T08:29:48.846Z,4.60
2024-03-16T08:32:20.378Z,4.80
2024-03-16T08:34:52.310Z,4.90
2024-03-16T08:37:27.322Z,5.10
2024-03-16T08:39:59.973Z,5.30
2024-03-16T08:42:32.240Z,5.50
2024-03-16T08:45:07.258Z,5.60
2024-03-16T08:47:39.338Z,5.90
2024-03-16T08:50:12.491Z,6.00
2024-03-16T08:52:45.970Z,6.20
2024-03-16T08:55:20.747Z,6.40
2024-03-16T08:57:54.207Z,6.60
2024-03-16T09:00:28.476Z,6.80
2024-03-16T09:03:02.829Z,7.10
2024-03-16T09:05:37.204Z,7.20
2024-03-16T09:08:09.903Z,7.30
2024-03-16T09:10:42.718Z,7.40
2024-03-16T09:13:19.464Z,7.50
2024-03-16T09:15:52.635Z,7.60
2024-03-16T09:18:26.091Z,7.80
2024-03-16T09:20:59.344Z,7.90
2024-03-16T09:23:32.324Z,8.10
2024-03-16T09:26:07.139Z,8.20
2024-03-16T09:28:40.571Z,8.40
2024-03-16T09:31:14.197Z,8.50
2024-03-16T09:33:48.306Z,8.70
2024-03-16T09:36:23.180Z,8.90
2024-03-16T09:38:56.813Z,9.00
2024-03-16T09:41:32.678Z,9.30
